sensor_id;sensor_type;location;lat;lon;timestamp;temperature;humidity
78522;SHT31;67819;51.972;5.678;2023-04-23T00:01:33;10.8;78.8
78522;SHT31;67819;51.972;5.678;2023-04-23T00:04:07;10.8;78.6
78522;SHT31;67819;51.972;5.678;2023-04-23T00:06:36;10.8;78.5
78522;SHT31;67819;51.972;5.678;2023-04-23T00:09:06;10.8;78.4
78522;SHT31;67819;51.972;5.678;2023-04-23T00:11:35;10.8;78.4
78522;SHT31;67819;51.972;5.678;2023-04-23T00:14:05;10.8;78.3
78522;SHT31;67819;51.972;5.678;2023-04-23T00:16:34;10.8;77.8
78522;SHT31;67819;51.972;5.678;2023-04-23T00:19:02;10.8;78.0
78522;SHT31;67819;51.972;5.678;2023-04-23T00:21:31;10.7;77.8
78522;SHT31;67819;51.972;5.678;2023-04-23T00:24:00;10.7;77.8
78522;SHT31;67819;51.972;5.678;2023-04-23T00:26:28;10.7;77.9
78522;SHT31;67819;51.972;5.678;2023-04-23T00:28:59;10.6;78.2
78522;SHT31;67819;51.972;5.678;2023-04-23T00:31:27;10.6;78.2
78522;SHT31;67819;51.972;5.678;2023-04-23T00:33:56;10.6;78.3
78522;SHT31;67819;51.972;5.678;2023-04-23T00:36:25;10.6;78.2
78522;SHT31;67819;51.972;5.678;2023-04-23T00:38:55;10.5;78.3
78522;SHT31;67819;51.972;5.678;2023-04-23T00:41:24;10.5;78.4
78522;SHT31;67819;51.972;5.678;2023-04-23T00:43:55;10.5;78.3
78522;SHT31;67819;51.972;5.678;2023-04-23T00:46:25;10.5;78.3
78522;SHT31;67819;51.972;5.678;2023-04-23T00:48:54;10.4;78.3
78522;SHT31;67819;51.972;5.678;2023-04-23T00:51:23;10.4;78.6
78522;SHT31;67819;51.972;5.678;2023-04-23T00:53:51;10.4;78.6
78522;SHT31;67819;51.972;5.678;2023-04-23T00:56:21;10.4;78.8
78522;SHT31;67819;51.972;5.678;2023-04-23T00:58:51;10.4;79.1
78522;SHT31;67819;51.972;5.678;2023-04-23T01:01:20;10.3;79.1
78522;SHT31;67819;51.972;5.678;2023-04-23T01:03:50;10.3;79.1
78522;SHT31;67819;51.972;5.678;2023-04-23T01:06:20;10.3;79.1
78522;SHT31;67819;51.972;5.678;2023-04-23T01:08:50;10.3;79.2
78522;SHT31;67819;51.972;5.678;2023-04-23T01:11:19;10.3;79.1
78522;SHT31;67819;51.972;5.678;2023-04-23T01:13:48;10.3;79.4
78522;SHT31;67819;51.972;5.678;2023-04-23T01:16:17;10.3;79.8
78522;SHT31;67819;51.972;5.678;2023-04-23T01:18:47;10.3;79.7
78522;SHT31;67819;51.972;5.678;2023-04-23T01:21:17;10.3;79.8
78522;SHT31;67819;51.972;5.678;2023-04-23T01:23:46;10.4;80.2
78522;SHT31;67819;51.972;5.678;2023-04-23T01:26:15;10.4;79.6
78522;SHT31;67819;51.972;5.678;2023-04-23T01:28:45;10.4;79.4
78522;SHT31;67819;51.972;5.678;2023-04-23T01:31:15;10.4;79.2
78522;SHT31;67819;51.972;5.678;2023-04-23T01:33:44;10.5;79.1
78522;SHT31;67819;51.972;5.678;2023-04-23T01:36:13;10.5;78.9
78522;SHT31;67819;51.972;5.678;2023-04-23T01:38:42;10.5;78.8
78522;SHT31;67819;51.972;5.678;2023-04-23T01:41:13;10.5;79.0
78522;SHT31;67819;51.972;5.678;2023-04-23T01:43:42;10.5;79.0
78522;SHT31;67819;51.972;5.678;2023-04-23T01:46:13;10.5;79.1
78522;SHT31;67819;51.972;5.678;2023-04-23T01:48:44;10.5;78.8
78522;SHT31;67819;51.972;5.678;2023-04-23T01:51:12;10.4;78.7
78522;SHT31;67819;51.972;5.678;2023-04-23T01:53:41;10.4;78.6
78522;SHT31;67819;51.972;5.678;2023-04-23T01:56:10;10.4;78.8
78522;SHT31;67819;51.972;5.678;2023-04-23T01:58:39;10.4;78.9
78522;SHT31;67819;51.972;5.678;2023-04-23T02:01:08;10.4;79.1
78522;SHT31;67819;51.972;5.678;2023-04-23T02:03:37;10.4;79.2
78522;SHT31;67819;51.972;5.678;2023-04-23T02:06:06;10.4;79.0
78522;SHT31;67819;51.972;5.678;2023-04-23T02:08:35;10.4;78.9
78522;SHT31;67819;51.972;5.678;2023-04-23T02:11:05;10.4;79.1
78522;SHT31;67819;51.972;5.678;2023-04-23T02:13:34;10.4;78.8
78522;SHT31;67819;51.972;5.678;2023-04-23T02:16:05;10.4;79.2
78522;SHT31;67819;51.972;5.678;2023-04-23T02:18:34;10.4;79.2
78522;SHT31;67819;51.972;5.678;2023-04-23T02:21:02;10.4;79.4
78522;SHT31;67819;51.972;5.678;2023-04-23T02:23:31;10.5;79.2
78522;SHT31;67819;51.972;5.678;2023-04-23T02:26:00;10.5;79.1
78522;SHT31;67819;51.972;5.678;2023-04-23T02:28:28;10.5;79.2
78522;SHT31;67819;51.972;5.678;2023-04-23T02:30:57;10.5;78.8
78522;SHT31;67819;51.972;5.678;2023-04-23T02:33:26;10.6;78.5
78522;SHT31;67819;51.972;5.678;2023-04-23T02:35:54;10.6;78.5
78522;SHT31;67819;51.972;5.678;2023-04-23T02:38:25;10.6;78.4
78522;SHT31;67819;51.972;5.678;2023-04-23T02:40:53;10.6;78.5
78522;SHT31;67819;51.972;5.678;2023-04-23T02:43:22;10.6;78.4
78522;SHT31;67819;51.972;5.678;2023-04-23T02:45:51;10.6;78.6
78522;SHT31;67819;51.972;5.678;2023-04-23T02:48:19;10.6;78.5
78522;SHT31;67819;51.972;5.678;2023-04-23T02:50:49;10.6;78.6
78522;SHT31;67819;51.972;5.678;2023-04-23T02:53:18;10.6;78.4
78522;SHT31;67819;51.972;5.678;2023-04-23T02:55:46;10.7;78.5
78522;SHT31;67819;51.972;5.678;2023-04-23T02:58:15;10.7;78.3
78522;SHT31;67819;51.972;5.678;2023-04-23T03:00:43;10.7;78.4
78522;SHT31;67819;51.972;5.678;2023-04-23T03:03:12;10.7;78.2
78522;SHT31;67819;51.972;5.678;2023-04-23T03:05:40;10.7;77.9
78522;SHT31;67819;51.972;5.678;2023-04-23T03:08:09;10.7;77.7
78522;SHT31;67819;51.972;5.678;2023-04-23T03:10:37;10.7;77.9
78522;SHT31;67819;51.972;5.678;2023-04-23T03:13:06;10.7;77.7
78522;SHT31;67819;51.972;5.678;2023-04-23T03:15:35;10.6;77.7
78522;SHT31;67819;51.972;5.678;2023-04-23T03:18:04;10.6;78.1
78522;SHT31;67819;51.972;5.678;2023-04-23T03:20:33;10.6;77.9
78522;SHT31;67819;51.972;5.678;2023-04-23T03:23:02;10.6;77.8
78522;SHT31;67819;51.972;5.678;2023-04-23T03:25:33;10.6;78.4
78522;SHT31;67819;51.972;5.678;2023-04-23T03:28:04;10.6;78.4
78522;SHT31;67819;51.972;5.678;2023-04-23T03:30:33;10.6;78.7
78522;SHT31;67819;51.972;5.678;2023-04-23T03:33:01;10.6;78.3
78522;SHT31;67819;51.972;5.678;2023-04-23T03:35:30;10.6;78.7
78522;SHT31;67819;51.972;5.678;2023-04-23T03:37:58;10.6;78.6
78522;SHT31;67819;51.972;5.678;2023-04-23T03:40:27;10.6;78.5
78522;SHT31;67819;51.972;5.678;2023-04-23T03:42:56;10.6;78.5
78522;SHT31;67819;51.972;5.678;2023-04-23T03:45:25;10.6;78.3
78522;SHT31;67819;51.972;5.678;2023-04-23T03:47:53;10.6;78.3
78522;SHT31;67819;51.972;5.678;2023-04-23T03:50:22;10.6;78.3
78522;SHT31;67819;51.972;5.678;2023-04-23T03:52:51;10.6;78.3
78522;SHT31;67819;51.972;5.678;2023-04-23T03:55:19;10.6;78.5
78522;SHT31;67819;51.972;5.678;2023-04-23T03:57:48;10.6;78.3
78522;SHT31;67819;51.972;5.678;2023-04-23T04:00:17;10.6;78.3
78522;SHT31;67819;51.972;5.678;2023-04-23T04:02:48;10.6;78.1
78522;SHT31;67819;51.972;5.678;2023-04-23T04:05:16;10.6;77.8
78522;SHT31;67819;51.972;5.678;2023-04-23T04:07:45;10.6;77.9
78522;SHT31;67819;51.972;5.678;2023-04-23T04:10:15;10.6;77.6
78522;SHT31;67819;51.972;5.678;2023-04-23T04:12:44;10.6;77.8
78522;SHT31;67819;51.972;5.678;2023-04-23T04:15:13;10.6;77.9
78522;SHT31;67819;51.972;5.678;2023-04-23T04:17:43;10.6;77.9
78522;SHT31;67819;51.972;5.678;2023-04-23T04:20:12;10.6;78.0
78522;SHT31;67819;51.972;5.678;2023-04-23T04:22:41;10.5;78.1
78522;SHT31;67819;51.972;5.678;2023-04-23T04:25:09;10.5;78.0
78522;SHT31;67819;51.972;5.678;2023-04-23T04:27:38;10.5;78.2
78522;SHT31;67819;51.972;5.678;2023-04-23T04:30:08;10.5;78.0
78522;SHT31;67819;51.972;5.678;2023-04-23T04:32:37;10.5;78.1
78522;SHT31;67819;51.972;5.678;2023-04-23T04:35:10;10.5;78.6
78522;SHT31;67819;51.972;5.678;2023-04-23T04:37:40;10.5;78.9
78522;SHT31;67819;51.972;5.678;2023-04-23T04:40:12;10.5;78.8
78522;SHT31;67819;51.972;5.678;2023-04-23T04:42:41;10.5;79.0
78522;SHT31;67819;51.972;5.678;2023-04-23T04:45:12;10.5;78.8
78522;SHT31;67819;51.972;5.678;2023-04-23T04:47:40;10.5;78.9
78522;SHT31;67819;51.972;5.678;2023-04-23T04:50:09;10.5;79.1
78522;SHT31;67819;51.972;5.678;2023-04-23T04:52:40;10.6;79.1
78522;SHT31;67819;51.972;5.678;2023-04-23T04:55:09;10.6;79.3
78522;SHT31;67819;51.972;5.678;2023-04-23T04:57:37;10.7;79.0
78522;SHT31;67819;51.972;5.678;2023-04-23T05:00:20;10.7;78.9
78522;SHT31;67819;51.972;5.678;2023-04-23T05:02:50;10.8;78.6
78522;SHT31;67819;51.972;5.678;2023-04-23T05:05:21;10.8;78.4
78522;SHT31;67819;51.972;5.678;2023-04-23T05:07:51;10.9;78.6
78522;SHT31;67819;51.972;5.678;2023-04-23T05:10:22;10.9;78.2
78522;SHT31;67819;51.972;5.678;2023-04-23T05:12:52;11.0;78.1
78522;SHT31;67819;51.972;5.678;2023-04-23T05:15:21;11.0;77.7
78522;SHT31;67819;51.972;5.678;2023-04-23T05:17:50;11.1;77.2
78522;SHT31;67819;51.972;5.678;2023-04-23T05:20:20;11.1;77.1
78522;SHT31;67819;51.972;5.678;2023-04-23T05:22:49;11.1;77.0
78522;SHT31;67819;51.972;5.678;2023-04-23T05:25:18;11.0;77.1
78522;SHT31;67819;51.972;5.678;2023-04-23T05:27:46;11.0;77.3
78522;SHT31;67819;51.972;5.678;2023-04-23T05:30:15;11.0;77.2
78522;SHT31;67819;51.972;5.678;2023-04-23T05:32:45;11.0;77.6
78522;SHT31;67819;51.972;5.678;2023-04-23T05:35:14;11.0;78.0
78522;SHT31;67819;51.972;5.678;2023-04-23T05:37:43;11.0;78.5
78522;SHT31;67819;51.972;5.678;2023-04-23T05:40:12;11.0;78.7
78522;SHT31;67819;51.972;5.678;2023-04-23T05:42:40;11.0;78.7
78522;SHT31;67819;51.972;5.678;2023-04-23T05:45:10;11.0;78.4
78522;SHT31;67819;51.972;5.678;2023-04-23T05:47:39;11.1;78.1
78522;SHT31;67819;51.972;5.678;2023-04-23T05:50:10;11.1;77.9
78522;SHT31;67819;51.972;5.678;2023-04-23T05:52:39;11.1;78.1
78522;SHT31;67819;51.972;5.678;2023-04-23T05:55:08;11.1;78.9
78522;SHT31;67819;51.972;5.678;2023-04-23T05:57:37;11.1;79.5
78522;SHT31;67819;51.972;5.678;2023-04-23T06:00:08;11.2;79.3
78522;SHT31;67819;51.972;5.678;2023-04-23T06:02:37;11.3;79.1
78522;SHT31;67819;51.972;5.678;2023-04-23T06:05:07;11.5;78.7
78522;SHT31;67819;51.972;5.678;2023-04-23T06:07:36;11.6;78.6
78522;SHT31;67819;51.972;5.678;2023-04-23T06:10:05;11.7;77.7
78522;SHT31;67819;51.972;5.678;2023-04-23T06:12:34;11.8;77.6
78522;SHT31;67819;51.972;5.678;2023-04-23T06:15:05;11.8;77.3
78522;SHT31;67819;51.972;5.678;2023-04-23T06:17:34;11.9;77.6
78522;SHT31;67819;51.972;5.678;2023-04-23T06:20:03;11.9;77.5
78522;SHT31;67819;51.972;5.678;2023-04-23T06:22:36;12.0;77.5
78522;SHT31;67819;51.972;5.678;2023-04-23T06:25:05;12.1;77.4
78522;SHT31;67819;51.972;5.678;2023-04-23T06:27:34;12.1;77.5
78522;SHT31;67819;51.972;5.678;2023-04-23T06:30:03;12.1;77.7
78522;SHT31;67819;51.972;5.678;2023-04-23T06:32:31;12.2;77.6
78522;SHT31;67819;51.972;5.678;2023-04-23T06:35:00;12.3;77.6
78522;SHT31;67819;51.972;5.678;2023-04-23T06:37:29;12.3;77.4
78522;SHT31;67819;51.972;5.678;2023-04-23T06:39:59;12.4;76.9
78522;SHT31;67819;51.972;5.678;2023-04-23T06:42:29;12.4;77.0
78522;SHT31;67819;51.972;5.678;2023-04-23T06:44:58;12.4;77.3
78522;SHT31;67819;51.972;5.678;2023-04-23T06:47:29;12.5;77.3
78522;SHT31;67819;51.972;5.678;2023-04-23T06:49:58;12.6;77.2
78522;SHT31;67819;51.972;5.678;2023-04-23T06:52:27;12.6;77.4
78522;SHT31;67819;51.972;5.678;2023-04-23T06:54:56;12.7;77.2
78522;SHT31;67819;51.972;5.678;2023-04-23T06:57:25;12.7;76.8
78522;SHT31;67819;51.972;5.678;2023-04-23T06:59:53;12.8;76.9
78522;SHT31;67819;51.972;5.678;2023-04-23T07:02:22;12.8;76.9
78522;SHT31;67819;51.972;5.678;2023-04-23T07:04:51;12.9;76.9
78522;SHT31;67819;51.972;5.678;2023-04-23T07:07:20;12.9;76.7
78522;SHT31;67819;51.972;5.678;2023-04-23T07:09:49;13.0;76.9
78522;SHT31;67819;51.972;5.678;2023-04-23T07:12:17;13.0;76.6
78522;SHT31;67819;51.972;5.678;2023-04-23T07:14:48;13.1;76.6
78522;SHT31;67819;51.972;5.678;2023-04-23T07:17:19;13.2;76.0
78522;SHT31;67819;51.972;5.678;2023-04-23T07:19:47;13.3;75.6
78522;SHT31;67819;51.972;5.678;2023-04-23T07:22:16;13.3;75.2
78522;SHT31;67819;51.972;5.678;2023-04-23T07:24:45;13.4;75.1
78522;SHT31;67819;51.972;5.678;2023-04-23T07:27:14;13.4;75.1
78522;SHT31;67819;51.972;5.678;2023-04-23T07:29:42;13.5;74.4
78522;SHT31;67819;51.972;5.678;2023-04-23T07:32:11;13.5;74.8
78522;SHT31;67819;51.972;5.678;2023-04-23T07:34:39;13.5;74.3
78522;SHT31;67819;51.972;5.678;2023-04-23T07:37:10;13.6;75.2
78522;SHT31;67819;51.972;5.678;2023-04-23T07:39:38;13.6;74.5
78522;SHT31;67819;51.972;5.678;2023-04-23T07:42:09;13.7;74.1
78522;SHT31;67819;51.972;5.678;2023-04-23T07:44:37;13.7;74.0
78522;SHT31;67819;51.972;5.678;2023-04-23T07:47:06;13.8;73.8
78522;SHT31;67819;51.972;5.678;2023-04-23T07:49:35;13.8;73.4
78522;SHT31;67819;51.972;5.678;2023-04-23T07:52:03;13.9;72.7
78522;SHT31;67819;51.972;5.678;2023-04-23T07:54:32;13.9;72.3
78522;SHT31;67819;51.972;5.678;2023-04-23T07:57:01;14.0;72.3
78522;SHT31;67819;51.972;5.678;2023-04-23T07:59:30;14.0;72.1
78522;SHT31;67819;51.972;5.678;2023-04-23T08:01:58;14.0;72.2
78522;SHT31;67819;51.972;5.678;2023-04-23T08:04:27;14.1;72.5
78522;SHT31;67819;51.972;5.678;2023-04-23T08:06:56;14.1;72.1
78522;SHT31;67819;51.972;5.678;2023-04-23T08:09:24;14.2;71.4
78522;SHT31;67819;51.972;5.678;2023-04-23T08:11:53;14.2;72.0
78522;SHT31;67819;51.972;5.678;2023-04-23T08:14:23;14.3;72.1
78522;SHT31;67819;51.972;5.678;2023-04-23T08:16:51;14.3;72.2
78522;SHT31;67819;51.972;5.678;2023-04-23T08:19:20;14.4;71.5
78522;SHT31;67819;51.972;5.678;2023-04-23T08:21:48;14.4;70.4
78522;SHT31;67819;51.972;5.678;2023-04-23T08:24:17;14.5;70.6
78522;SHT31;67819;51.972;5.678;2023-04-23T08:26:46;14.6;70.6
78522;SHT31;67819;51.972;5.678;2023-04-23T08:29:15;14.6;70.1
78522;SHT31;67819;51.972;5.678;2023-04-23T08:31:45;14.7;70.5
78522;SHT31;67819;51.972;5.678;2023-04-23T08:34:14;14.7;70.3
78522;SHT31;67819;51.972;5.678;2023-04-23T08:36:42;14.8;69.3
78522;SHT31;67819;51.972;5.678;2023-04-23T08:39:11;14.9;69.1
78522;SHT31;67819;51.972;5.678;2023-04-23T08:41:41;14.9;69.1
78522;SHT31;67819;51.972;5.678;2023-04-23T08:44:17;15.0;69.5
78522;SHT31;67819;51.972;5.678;2023-04-23T08:46:47;15.1;69.0
78522;SHT31;67819;51.972;5.678;2023-04-23T08:49:17;15.2;68.8
78522;SHT31;67819;51.972;5.678;2023-04-23T08:51:49;15.3;69.4
78522;SHT31;67819;51.972;5.678;2023-04-23T08:54:24;15.3;66.9
78522;SHT31;67819;51.972;5.678;2023-04-23T08:56:55;15.4;67.2
78522;SHT31;67819;51.972;5.678;2023-04-23T08:59:25;15.5;66.8
78522;SHT31;67819;51.972;5.678;2023-04-23T09:01:54;15.5;66.6
78522;SHT31;67819;51.972;5.678;2023-04-23T09:04:24;15.6;66.1
78522;SHT31;67819;51.972;5.678;2023-04-23T09:06:54;15.6;66.7
78522;SHT31;67819;51.972;5.678;2023-04-23T09:09:29;15.7;65.8
78522;SHT31;67819;51.972;5.678;2023-04-23T09:11:57;15.7;65.8
78522;SHT31;67819;51.972;5.678;2023-04-23T09:14:26;15.8;64.7
78522;SHT31;67819;51.972;5.678;2023-04-23T09:16:57;15.9;65.1
78522;SHT31;67819;51.972;5.678;2023-04-23T09:19:27;15.9;64.4
78522;SHT31;67819;51.972;5.678;2023-04-23T09:21:57;16.0;62.6
78522;SHT31;67819;51.972;5.678;2023-04-23T09:24:26;16.1;63.1
78522;SHT31;67819;51.972;5.678;2023-04-23T09:26:57;16.1;62.3
78522;SHT31;67819;51.972;5.678;2023-04-23T09:29:26;16.2;61.8
78522;SHT31;67819;51.972;5.678;2023-04-23T09:32:05;16.2;61.6
78522;SHT31;67819;51.972;5.678;2023-04-23T09:34:34;16.3;61.5
78522;SHT31;67819;51.972;5.678;2023-04-23T09:37:04;16.3;61.5
78522;SHT31;67819;51.972;5.678;2023-04-23T09:39:35;16.4;62.4
78522;SHT31;67819;51.972;5.678;2023-04-23T09:42:04;16.4;62.2
78522;SHT31;67819;51.972;5.678;2023-04-23T09:44:36;16.5;63.0
78522;SHT31;67819;51.972;5.678;2023-04-23T09:47:08;16.6;61.7
78522;SHT31;67819;51.972;5.678;2023-04-23T09:49:46;16.6;59.6
78522;SHT31;67819;51.972;5.678;2023-04-23T09:52:15;16.7;60.0
78522;SHT31;67819;51.972;5.678;2023-04-23T09:54:44;16.8;59.6
78522;SHT31;67819;51.972;5.678;2023-04-23T09:57:14;16.8;59.2
78522;SHT31;67819;51.972;5.678;2023-04-23T09:59:43;16.9;58.4
78522;SHT31;67819;51.972;5.678;2023-04-23T10:02:11;17.0;59.6
78522;SHT31;67819;51.972;5.678;2023-04-23T10:04:40;17.1;58.1
78522;SHT31;67819;51.972;5.678;2023-04-23T10:07:09;17.3;56.9
78522;SHT31;67819;51.972;5.678;2023-04-23T10:09:39;17.4;55.6
78522;SHT31;67819;51.972;5.678;2023-04-23T10:12:10;17.5;56.3
78522;SHT31;67819;51.972;5.678;2023-04-23T10:14:40;17.6;54.7
78522;SHT31;67819;51.972;5.678;2023-04-23T10:17:10;17.7;54.7
78522;SHT31;67819;51.972;5.678;2023-04-23T10:19:43;17.8;52.9
78522;SHT31;67819;51.972;5.678;2023-04-23T10:22:15;17.9;54.2
78522;SHT31;67819;51.972;5.678;2023-04-23T10:24:45;18.0;54.4
78522;SHT31;67819;51.972;5.678;2023-04-23T10:27:21;18.1;52.2
78522;SHT31;67819;51.972;5.678;2023-04-23T10:29:53;18.2;51.6
78522;SHT31;67819;51.972;5.678;2023-04-23T10:32:22;18.3;52.0
78522;SHT31;67819;51.972;5.678;2023-04-23T10:34:52;18.3;51.9
78522;SHT31;67819;51.972;5.678;2023-04-23T10:37:21;18.4;52.0
78522;SHT31;67819;51.972;5.678;2023-04-23T10:39:54;18.4;51.4
78522;SHT31;67819;51.972;5.678;2023-04-23T10:42:25;18.4;51.3
78522;SHT31;67819;51.972;5.678;2023-04-23T10:44:57;18.4;51.5
78522;SHT31;67819;51.972;5.678;2023-04-23T10:47:26;18.4;49.5
78522;SHT31;67819;51.972;5.678;2023-04-23T10:49:54;18.4;48.8
78522;SHT31;67819;51.972;5.678;2023-04-23T10:52:25;18.4;49.2
78522;SHT31;67819;51.972;5.678;2023-04-23T10:54:57;18.4;49.1
78522;SHT31;67819;51.972;5.678;2023-04-23T10:57:27;18.5;50.1
78522;SHT31;67819;51.972;5.678;2023-04-23T10:59:55;18.6;50.0
78522;SHT31;67819;51.972;5.678;2023-04-23T11:02:25;18.7;48.6
78522;SHT31;67819;51.972;5.678;2023-04-23T11:04:56;18.9;47.5
78522;SHT31;67819;51.972;5.678;2023-04-23T11:07:31;18.9;48.2
78522;SHT31;67819;51.972;5.678;2023-04-23T11:10:11;19.0;48.0
78522;SHT31;67819;51.972;5.678;2023-04-23T11:12:40;19.1;48.2
78522;SHT31;67819;51.972;5.678;2023-04-23T11:15:13;19.1;47.4
78522;SHT31;67819;51.972;5.678;2023-04-23T11:19:36;19.2;46.5
78522;SHT31;67819;51.972;5.678;2023-04-23T11:22:16;19.2;46.5
78522;SHT31;67819;51.972;5.678;2023-04-23T11:24:45;19.2;46.4
78522;SHT31;67819;51.972;5.678;2023-04-23T11:27:18;19.2;46.8
78522;SHT31;67819;51.972;5.678;2023-04-23T11:29:47;19.2;47.4
78522;SHT31;67819;51.972;5.678;2023-04-23T11:32:16;19.2;46.8
78522;SHT31;67819;51.972;5.678;2023-04-23T11:34:47;19.2;46.6
78522;SHT31;67819;51.972;5.678;2023-04-23T11:37:17;19.2;46.7
78522;SHT31;67819;51.972;5.678;2023-04-23T11:39:46;19.2;47.3
78522;SHT31;67819;51.972;5.678;2023-04-23T11:42:15;19.3;47.9
78522;SHT31;67819;51.972;5.678;2023-04-23T11:44:45;19.3;47.3
78522;SHT31;67819;51.972;5.678;2023-04-23T11:47:15;19.4;47.8
78522;SHT31;67819;51.972;5.678;2023-04-23T11:49:44;19.5;47.1
78522;SHT31;67819;51.972;5.678;2023-04-23T11:52:15;19.5;47.5
78522;SHT31;67819;51.972;5.678;2023-04-23T11:54:44;19.5;47.6
78522;SHT31;67819;51.972;5.678;2023-04-23T11:57:12;19.6;47.0
78522;SHT31;67819;51.972;5.678;2023-04-23T11:59:41;19.6;47.5
78522;SHT31;67819;51.972;5.678;2023-04-23T12:02:10;19.6;47.0
78522;SHT31;67819;51.972;5.678;2023-04-23T12:04:39;19.6;47.7
78522;SHT31;67819;51.972;5.678;2023-04-23T12:07:08;19.6;46.9
78522;SHT31;67819;51.972;5.678;2023-04-23T12:09:36;19.6;47.6
78522;SHT31;67819;51.972;5.678;2023-04-23T12:12:05;19.6;48.2
78522;SHT31;67819;51.972;5.678;2023-04-23T12:14:34;19.7;48.1
78522;SHT31;67819;51.972;5.678;2023-04-23T12:17:10;19.7;47.6
78522;SHT31;67819;51.972;5.678;2023-04-23T12:19:39;19.8;46.0
78522;SHT31;67819;51.972;5.678;2023-04-23T12:22:11;19.8;46.0
78522;SHT31;67819;51.972;5.678;2023-04-23T12:24:47;19.8;46.0
78522;SHT31;67819;51.972;5.678;2023-04-23T12:27:18;19.8;45.4
78522;SHT31;67819;51.972;5.678;2023-04-23T12:29:47;19.8;45.8
78522;SHT31;67819;51.972;5.678;2023-04-23T12:32:16;19.8;45.5
78522;SHT31;67819;51.972;5.678;2023-04-23T12:34:54;19.8;45.8
78522;SHT31;67819;51.972;5.678;2023-04-23T12:37:25;19.8;46.5
78522;SHT31;67819;51.972;5.678;2023-04-23T12:39:54;19.9;46.0
78522;SHT31;67819;51.972;5.678;2023-04-23T12:42:24;19.9;45.8
78522;SHT31;67819;51.972;5.678;2023-04-23T12:45:03;20.0;46.4
78522;SHT31;67819;51.972;5.678;2023-04-23T12:47:28;20.0;46.2
78522;SHT31;67819;51.972;5.678;2023-04-23T12:49:57;20.0;45.8
78522;SHT31;67819;51.972;5.678;2023-04-23T12:52:29;20.0;45.5
78522;SHT31;67819;51.972;5.678;2023-04-23T12:54:58;20.0;45.4
78522;SHT31;67819;51.972;5.678;2023-04-23T12:57:27;20.0;45.7
78522;SHT31;67819;51.972;5.678;2023-04-23T12:59:57;20.0;45.8
78522;SHT31;67819;51.972;5.678;2023-04-23T13:02:26;20.0;46.1
78522;SHT31;67819;51.972;5.678;2023-04-23T13:04:54;20.0;45.2
78522;SHT31;67819;51.972;5.678;2023-04-23T13:07:26;20.0;45.4
78522;SHT31;67819;51.972;5.678;2023-04-23T13:09:55;19.9;46.4
78522;SHT31;67819;51.972;5.678;2023-04-23T13:12:24;19.9;46.3
78522;SHT31;67819;51.972;5.678;2023-04-23T13:14:53;20.0;46.6
78522;SHT31;67819;51.972;5.678;2023-04-23T13:17:22;20.0;46.7
78522;SHT31;67819;51.972;5.678;2023-04-23T13:19:51;20.0;47.7
78522;SHT31;67819;51.972;5.678;2023-04-23T13:22:21;20.0;46.2
78522;SHT31;67819;51.972;5.678;2023-04-23T13:24:53;20.0;45.5
78522;SHT31;67819;51.972;5.678;2023-04-23T13:27:23;20.0;46.3
78522;SHT31;67819;51.972;5.678;2023-04-23T13:29:52;20.0;46.4
78522;SHT31;67819;51.972;5.678;2023-04-23T13:32:21;20.0;45.5
78522;SHT31;67819;51.972;5.678;2023-04-23T13:34:52;20.0;46.5
78522;SHT31;67819;51.972;5.678;2023-04-23T13:37:21;20.0;46.3
78522;SHT31;67819;51.972;5.678;2023-04-23T13:39:49;20.0;45.9
78522;SHT31;67819;51.972;5.678;2023-04-23T13:42:18;20.0;45.4
78522;SHT31;67819;51.972;5.678;2023-04-23T13:44:47;20.0;46.0
78522;SHT31;67819;51.972;5.678;2023-04-23T13:47:15;20.1;47.4
78522;SHT31;67819;51.972;5.678;2023-04-23T13:49:44;20.2;46.3
78522;SHT31;67819;51.972;5.678;2023-04-23T13:52:12;20.2;46.2
78522;SHT31;67819;51.972;5.678;2023-04-23T13:54:41;20.3;45.0
78522;SHT31;67819;51.972;5.678;2023-04-23T13:57:13;20.4;45.4
78522;SHT31;67819;51.972;5.678;2023-04-23T13:59:41;20.4;44.6
78522;SHT31;67819;51.972;5.678;2023-04-23T14:02:10;20.4;43.1
78522;SHT31;67819;51.972;5.678;2023-04-23T14:04:38;20.4;43.3
78522;SHT31;67819;51.972;5.678;2023-04-23T14:07:07;20.3;44.0
78522;SHT31;67819;51.972;5.678;2023-04-23T14:09:37;20.2;43.9
78522;SHT31;67819;51.972;5.678;2023-04-23T14:12:08;20.1;44.5
78522;SHT31;67819;51.972;5.678;2023-04-23T14:14:37;20.0;44.1
78522;SHT31;67819;51.972;5.678;2023-04-23T14:17:08;19.9;44.9
78522;SHT31;67819;51.972;5.678;2023-04-23T14:19:36;19.8;45.2
78522;SHT31;67819;51.972;5.678;2023-04-23T14:22:05;19.7;45.8
78522;SHT31;67819;51.972;5.678;2023-04-23T14:24:39;19.6;45.0
78522;SHT31;67819;51.972;5.678;2023-04-23T14:27:11;19.6;44.8
78522;SHT31;67819;51.972;5.678;2023-04-23T14:29:45;19.5;45.4
78522;SHT31;67819;51.972;5.678;2023-04-23T14:32:14;19.4;46.0
78522;SHT31;67819;51.972;5.678;2023-04-23T14:34:43;19.4;45.5
78522;SHT31;67819;51.972;5.678;2023-04-23T14:37:12;19.3;45.5
78522;SHT31;67819;51.972;5.678;2023-04-23T14:39:44;19.3;46.8
78522;SHT31;67819;51.972;5.678;2023-04-23T14:42:13;19.2;46.4
78522;SHT31;67819;51.972;5.678;2023-04-23T14:44:42;19.2;48.0
78522;SHT31;67819;51.972;5.678;2023-04-23T14:47:11;19.1;49.1
78522;SHT31;67819;51.972;5.678;2023-04-23T14:49:40;19.0;48.6
78522;SHT31;67819;51.972;5.678;2023-04-23T14:52:08;18.9;49.6
78522;SHT31;67819;51.972;5.678;2023-04-23T14:54:37;18.8;49.2
78522;SHT31;67819;51.972;5.678;2023-04-23T14:57:06;18.6;51.3
78522;SHT31;67819;51.972;5.678;2023-04-23T14:59:34;18.5;53.1
78522;SHT31;67819;51.972;5.678;2023-04-23T15:02:03;18.2;55.9
78522;SHT31;67819;51.972;5.678;2023-04-23T15:04:32;17.9;57.4
78522;SHT31;67819;51.972;5.678;2023-04-23T15:07:00;17.5;59.4
78522;SHT31;67819;51.972;5.678;2023-04-23T15:09:29;17.1;61.5
78522;SHT31;67819;51.972;5.678;2023-04-23T15:11:57;16.9;61.8
78522;SHT31;67819;51.972;5.678;2023-04-23T15:14:30;16.7;63.5
78522;SHT31;67819;51.972;5.678;2023-04-23T15:16:59;16.5;64.1
78522;SHT31;67819;51.972;5.678;2023-04-23T15:19:28;16.3;65.2
78522;SHT31;67819;51.972;5.678;2023-04-23T15:21:58;16.2;66.2
78522;SHT31;67819;51.972;5.678;2023-04-23T15:24:26;16.1;66.8
78522;SHT31;67819;51.972;5.678;2023-04-23T15:26:55;16.0;67.6
78522;SHT31;67819;51.972;5.678;2023-04-23T15:29:25;15.9;67.1
78522;SHT31;67819;51.972;5.678;2023-04-23T15:31:53;15.8;67.5
78522;SHT31;67819;51.972;5.678;2023-04-23T15:34:23;15.7;67.4
78522;SHT31;67819;51.972;5.678;2023-04-23T15:36:52;15.6;68.6
78522;SHT31;67819;51.972;5.678;2023-04-23T15:39:20;15.4;69.7
78522;SHT31;67819;51.972;5.678;2023-04-23T15:41:50;15.3;70.4
78522;SHT31;67819;51.972;5.678;2023-04-23T15:44:19;15.1;71.3
78522;SHT31;67819;51.972;5.678;2023-04-23T15:46:47;15.0;71.5
78522;SHT31;67819;51.972;5.678;2023-04-23T15:49:16;14.9;71.6
78522;SHT31;67819;51.972;5.678;2023-04-23T15:51:45;14.8;72.1
78522;SHT31;67819;51.972;5.678;2023-04-23T15:54:13;14.7;72.7
78522;SHT31;67819;51.972;5.678;2023-04-23T15:56:42;14.7;71.9
78522;SHT31;67819;51.972;5.678;2023-04-23T15:59:11;14.6;73.0
78522;SHT31;67819;51.972;5.678;2023-04-23T16:01:39;14.5;73.5
78522;SHT31;67819;51.972;5.678;2023-04-23T16:04:08;14.5;73.2
78522;SHT31;67819;51.972;5.678;2023-04-23T16:06:37;14.4;73.9
78522;SHT31;67819;51.972;5.678;2023-04-23T16:09:05;14.4;74.2
78522;SHT31;67819;51.972;5.678;2023-04-23T16:11:35;14.4;75.1
78522;SHT31;67819;51.972;5.678;2023-04-23T16:14:05;14.3;75.8
78522;SHT31;67819;51.972;5.678;2023-04-23T16:16:34;14.3;75.9
78522;SHT31;67819;51.972;5.678;2023-04-23T16:19:05;14.3;75.7